Moss Beach, California
Current Conditions -  °F | °C
As of 10:15 AM on Saturday 22 Nov 2014 (Local Time) from KHAF Reporting Station
Light Rain Light Rain  
Wind Chill: 61°   Ceiling: 300
Heat Index: 61°   Visibility: 0.5mi
Dew Point: 61°   Wind: 10mph
Humidity: 100%   Direction: 270°W
Pressure: 30.12"   Gusts: 16mph
Location:  37.53°N, 122.52°W
Report Text: KHAF 221815Z AUTO 27009G14KT 1/2SM -RA OVC003 16/16 A3012 RMK AO2
Loading
Personal Weather Stations






























Interactive Weather Map New forecast layout! Learn more

10-Day Weather Forecast

Advertisements
Track Severe Weather on mobile